Time;durP1;ratioP1;P1;durP2;ratioP2;P2;SDS_P1;SDS_P2;PMS_P1;PMS_P2;Temp;Humidity;BMP_temperature;BMP_pressure;BME280_temperature;BME280_humidity;BME280_pressure;Samples;Min_cycle;Max_cycle;Signal;HPM_P1;HPM_P2
2022/12/06 00:01:07;;;;;;;6.68;5.07;;;-1.70;60.10;;;;;;5050443;28;20041;-59
2022/12/06 00:03:34;;;;;;;7.15;5.90;;;-1.70;60.20;;;;;;5050198;28;20053;-66
2022/12/06 00:06:09;;;;;;;8.88;5.75;;;-1.70;60.10;;;;;;5043534;28;20032;-61
2022/12/06 00:08:36;;;;;;;8.52;5.60;;;-1.70;60.20;;;;;;5040243;28;20036;-65
2022/12/06 00:11:17;;;;;;;8.60;6.05;;;-1.70;60.10;;;;;;5048228;28;20426;-66
2022/12/06 00:13:43;;;;;;;9.27;6.20;;;-1.70;60.10;;;;;;5049337;28;20048;-67
2022/12/06 00:16:11;;;;;;;9.18;6.18;;;-1.70;60.00;;;;;;5049724;28;20025;-67
2022/12/06 00:18:39;;;;;;;8.35;6.03;;;-1.70;60.00;;;;;;5040833;28;20422;-67
2022/12/06 00:21:10;;;;;;;8.70;6.03;;;-1.70;59.90;;;;;;5049347;28;20083;-63
2022/12/06 00:23:41;;;;;;;9.38;5.57;;;-1.80;60.00;;;;;;5047760;28;20121;-63
2022/12/06 00:26:07;;;;;;;8.57;5.82;;;-1.80;60.00;;;;;;5046668;28;20034;-65
2022/12/06 00:28:34;;;;;;;9.40;5.97;;;-1.80;60.00;;;;;;5052751;28;20040;-67
2022/12/06 00:31:02;;;;;;;7.25;5.57;;;-1.90;60.30;;;;;;5048253;28;20059;-67
2022/12/06 00:33:28;;;;;;;7.32;5.35;;;-1.90;60.00;;;;;;5053425;28;20075;-67
2022/12/06 00:35:58;;;;;;;7.82;5.82;;;-1.90;60.20;;;;;;5033471;28;20025;-66
2022/12/06 00:38:24;;;;;;;7.45;5.80;;;-1.90;60.20;;;;;;5050099;28;20055;-65
2022/12/06 00:40:57;;;;;;;7.72;5.68;;;-2.00;60.20;;;;;;5048389;28;20104;-67
2022/12/06 00:43:22;;;;;;;9.80;6.40;;;-2.00;60.30;;;;;;5052144;28;20048;-66
2022/12/06 00:45:48;;;;;;;7.30;5.80;;;-2.00;60.20;;;;;;5045086;28;20024;-66
2022/12/06 00:48:13;;;;;;;8.07;5.82;;;-2.00;60.30;;;;;;5053257;28;20037;-66
2022/12/06 00:50:39;;;;;;;8.35;6.20;;;-1.90;60.30;;;;;;5054551;28;20140;-67
2022/12/06 00:53:04;;;;;;;7.57;5.82;;;-1.90;60.10;;;;;;5053436;28;20383;-67
2022/12/06 00:55:30;;;;;;;9.82;5.90;;;-2.00;60.10;;;;;;5042195;28;20076;-67
2022/12/06 00:57:56;;;;;;;8.60;5.85;;;-2.00;60.30;;;;;;5052295;28;20471;-67
2022/12/06 01:00:21;;;;;;;8.80;6.05;;;-2.00;60.20;;;;;;5054720;28;20040;-64
2022/12/06 01:02:47;;;;;;;8.50;5.60;;;-2.00;60.20;;;;;;5043794;23;20061;-68
2022/12/06 01:05:12;;;;;;;7.97;6.13;;;-2.00;60.20;;;;;;5019658;28;20038;-67
2022/12/06 01:07:38;;;;;;;9.45;5.72;;;-2.00;60.30;;;;;;5011241;28;20397;-69
2022/12/06 01:10:04;;;;;;;9.23;5.93;;;-2.00;60.30;;;;;;5013215;28;20073;-67
2022/12/06 01:12:30;;;;;;;6.93;5.50;;;-2.00;60.30;;;;;;5008062;28;20064;-68
2022/12/06 01:14:56;;;;;;;7.53;6.05;;;-2.00;60.40;;;;;;5015888;28;20084;-68
2022/12/06 01:17:21;;;;;;;7.85;5.80;;;-2.00;60.20;;;;;;5023826;28;20025;-58
2022/12/06 01:19:48;;;;;;;8.52;5.28;;;-2.00;60.30;;;;;;5014770;28;20167;-56
2022/12/06 01:22:14;;;;;;;6.90;5.18;;;-2.10;60.30;;;;;;5014446;28;20034;-66
2022/12/06 01:24:40;;;;;;;9.40;5.22;;;-2.10;60.30;;;;;;5023200;28;20091;-66
2022/12/06 01:27:06;;;;;;;8.63;6.00;;;-2.10;60.30;;;;;;5016935;28;20058;-58
2022/12/06 01:29:32;;;;;;;6.55;4.97;;;-2.10;60.40;;;;;;5014277;28;20520;-58
2022/12/06 01:31:58;;;;;;;8.57;5.45;;;-2.10;60.40;;;;;;5015325;28;20079;-57
2022/12/06 01:34:23;;;;;;;9.43;5.97;;;-2.10;60.40;;;;;;5012404;28;20121;-55
2022/12/06 01:36:49;;;;;;;8.30;5.65;;;-2.20;60.30;;;;;;5021140;28;20026;-53
2022/12/06 01:39:15;;;;;;;8.90;6.07;;;-2.20;60.30;;;;;;5022702;28;20034;-56
2022/12/06 01:41:41;;;;;;;7.68;5.60;;;-2.20;60.30;;;;;;5017979;28;20109;-56
2022/12/06 01:44:27;;;;;;;9.27;5.55;;;-2.20;60.40;;;;;;5010316;28;20123;-58
2022/12/06 01:46:53;;;;;;;8.88;6.47;;;-2.20;60.50;;;;;;5013486;28;20056;-54
2022/12/06 01:49:30;;;;;;;8.32;6.38;;;-2.20;60.40;;;;;;5006902;28;20022;-55
2022/12/06 01:52:04;;;;;;;9.00;6.55;;;-2.20;60.50;;;;;;5014694;28;20034;-69
2022/12/06 01:54:32;;;;;;;11.60;7.13;;;-2.20;60.30;;;;;;5026362;28;20484;-67
2022/12/06 01:56:59;;;;;;;8.85;5.97;;;-2.20;60.30;;;;;;5028683;28;20022;-57
2022/12/06 01:59:27;;;;;;;7.57;6.00;;;-2.20;60.30;;;;;;5016998;28;20523;-55
2022/12/06 02:01:53;;;;;;;9.60;6.35;;;-2.20;60.40;;;;;;5009482;28;20096;-56
2022/12/06 02:04:20;;;;;;;8.82;6.45;;;-2.20;60.50;;;;;;5016047;28;20534;-57
2022/12/06 02:06:47;;;;;;;7.70;5.78;;;-2.20;60.40;;;;;;5022014;28;20026;-58
2022/12/06 02:09:14;;;;;;;7.55;5.40;;;-2.20;60.40;;;;;;5013173;28;20040;-57
2022/12/06 02:11:40;;;;;;;9.43;5.80;;;-2.20;60.40;;;;;;5012156;28;20030;-66
2022/12/06 02:14:10;;;;;;;7.65;5.50;;;-2.20;60.40;;;;;;5015926;28;20033;-66
2022/12/06 02:16:41;;;;;;;6.80;5.10;;;-2.20;60.30;;;;;;5011917;28;20034;-65
2022/12/06 02:19:25;;;;;;;8.07;5.40;;;-2.30;60.30;;;;;;5010790;28;20080;-68
2022/12/06 02:22:07;;;;;;;7.32;5.35;;;-2.30;60.40;;;;;;5017482;28;20049;-55
2022/12/06 02:24:47;;;;;;;8.32;5.30;;;-2.40;60.40;;;;;;5016526;28;20120;-55
2022/12/06 02:27:41;;;;;;;7.03;5.15;;;-2.40;60.50;;;;;;5014961;28;20049;-66
2022/12/06 02:31:00;;;;;;;7.90;5.80;;;-2.40;60.60;;;;;;5018659;28;20030;-67
2022/12/06 02:34:01;;;;;;;6.70;5.40;;;-2.40;60.70;;;;;;4972917;28;20545;-55
2022/12/06 02:36:49;;;;;;;8.95;5.93;;;-2.40;60.80;;;;;;5003656;28;20120;-55
2022/12/06 02:39:33;;;;;;;9.93;6.38;;;-2.50;60.80;;;;;;5021367;28;20033;-55
2022/12/06 02:42:02;;;;;;;8.82;6.57;;;-2.40;60.90;;;;;;5016789;28;20465;-55
2022/12/06 02:44:41;;;;;;;9.18;6.20;;;-2.50;60.80;;;;;;5011610;28;20037;-54
2022/12/06 02:47:11;;;;;;;8.23;6.43;;;-2.50;60.70;;;;;;5011880;28;20493;-54
2022/12/06 02:49:43;;;;;;;11.30;6.47;;;-2.50;60.80;;;;;;5014036;28;20033;-55
2022/12/06 02:52:11;;;;;;;8.70;6.75;;;-2.50;60.90;;;;;;5017980;28;20030;-56
2022/12/06 02:54:37;;;;;;;8.38;5.90;;;-2.50;60.80;;;;;;5022874;28;20069;-55
2022/12/06 02:57:02;;;;;;;8.13;6.10;;;-2.50;60.80;;;;;;5023268;28;20033;-55
2022/12/06 02:59:28;;;;;;;8.75;6.60;;;-2.50;60.80;;;;;;5018008;28;20040;-54
2022/12/06 03:02:00;;;;;;;7.78;6.25;;;-2.50;60.90;;;;;;5019148;28;20357;-55
2022/12/06 03:05:04;;;;;;;8.52;6.70;;;-2.50;60.90;;;;;;5018671;28;20049;-53
2022/12/06 03:07:44;;;;;;;10.00;6.78;;;-2.50;61.00;;;;;;5013313;28;20391;-52
2022/12/06 03:11:08;;;;;;;7.88;6.38;;;-2.50;60.90;;;;;;5019995;28;20037;-57
2022/12/06 03:13:49;;;;;;;7.47;5.65;;;-2.50;61.00;;;;;;4987140;28;20057;-55
2022/12/06 03:16:49;;;;;;;9.00;5.93;;;-2.50;61.10;;;;;;4993732;28;20089;-58
2022/12/06 03:19:19;;;;;;;8.95;5.57;;;-2.50;61.00;;;;;;4962125;28;20465;-54
2022/12/06 03:22:02;;;;;;;8.10;5.35;;;-2.50;61.00;;;;;;5004509;28;20042;-54
2022/12/06 03:24:33;;;;;;;8.20;5.55;;;-2.50;61.00;;;;;;5009785;28;20029;-55
2022/12/06 03:27:03;;;;;;;9.48;5.38;;;-2.60;61.10;;;;;;5012572;28;20495;-57
2022/12/06 03:29:33;;;;;;;6.90;5.03;;;-2.60;61.30;;;;;;5012431;28;20049;-56
2022/12/06 03:32:01;;;;;;;8.95;5.88;;;-2.60;61.40;;;;;;5011525;28;20030;-54
2022/12/06 03:34:33;;;;;;;7.18;5.30;;;-2.60;61.40;;;;;;5009638;28;20033;-56
2022/12/06 03:37:00;;;;;;;;;;;-2.60;61.40;;;;;;5008760;28;20476;-62
2022/12/06 03:39:40;;;;;;;7.47;5.70;;;-2.70;61.40;;;;;;5011069;28;19909;-68
2022/12/06 03:42:06;;;;;;;7.85;5.80;;;-2.60;61.60;;;;;;5009733;28;20021;-54
2022/12/06 03:44:33;;;;;;;9.05;5.78;;;-2.60;61.60;;;;;;5011238;28;20041;-54
2022/12/06 03:47:05;;;;;;;9.85;6.40;;;-2.60;61.60;;;;;;5012202;28;20381;-54
2022/12/06 03:49:37;;;;;;;11.07;7.63;;;-2.70;61.60;;;;;;5010985;28;20141;-51
2022/12/06 03:52:03;;;;;;;10.70;6.85;;;-2.70;61.60;;;;;;5010886;28;20029;-53
2022/12/06 03:54:29;;;;;;;11.57;6.93;;;-2.70;61.60;;;;;;5006220;28;20041;-53
2022/12/06 03:56:55;;;;;;;10.85;7.57;;;-2.70;61.70;;;;;;5009458;28;20037;-59
2022/12/06 03:59:20;;;;;;;9.20;7.20;;;-2.70;61.70;;;;;;5009791;28;20065;-58
2022/12/06 04:01:46;;;;;;;9.77;6.40;;;-2.70;61.80;;;;;;5006716;28;20045;-59
2022/12/06 04:04:11;;;;;;;9.98;6.78;;;-2.70;61.80;;;;;;5007430;28;20108;-58
2022/12/06 04:06:37;;;;;;;11.02;6.90;;;-2.70;61.90;;;;;;5009060;28;20030;-58
2022/12/06 04:11:47;;;;;;;9.32;6.22;;;-2.70;61.90;;;;;;4994989;28;20034;-66
2022/12/06 04:14:13;;;;;;;9.02;6.38;;;-2.70;62.00;;;;;;5013339;28;20050;-65
2022/12/06 04:19:23;;;;;;;9.27;6.43;;;-2.70;62.10;;;;;;5007858;28;20036;-54
2022/12/06 04:24:32;;;;;;;10.85;6.53;;;-2.70;62.10;;;;;;5007962;28;20048;-52
2022/12/06 04:40:42;;;;;;;10.23;6.80;;;-2.70;62.10;;;;;;5006969;28;20133;-52
2022/12/06 04:45:55;;;;;;;8.88;7.05;;;-2.60;62.20;;;;;;5012039;28;20384;-54
2022/12/06 04:48:21;;;;;;;9.50;6.80;;;-2.70;62.20;;;;;;5015104;28;20038;-52
2022/12/06 04:50:48;;;;;;;9.77;6.63;;;-2.70;62.30;;;;;;5016416;28;20492;-54
2022/12/06 04:53:14;;;;;;;9.75;6.45;;;-2.70;62.40;;;;;;5014053;28;20187;-54
2022/12/06 04:55:45;;;;;;;8.77;6.28;;;-2.70;62.50;;;;;;5013355;28;20029;-53
2022/12/06 04:58:11;;;;;;;7.38;5.85;;;-2.70;62.50;;;;;;5012622;28;20029;-57
2022/12/06 05:00:42;;;;;;;8.45;6.35;;;-2.70;62.50;;;;;;5008890;28;20030;-56
2022/12/06 05:03:12;;;;;;;8.48;6.32;;;-2.70;63.20;;;;;;5015783;28;20049;-56
2022/12/06 05:05:41;;;;;;;10.23;7.22;;;-2.60;62.60;;;;;;5015079;28;20036;-56
2022/12/06 05:08:07;;;;;;;10.10;7.13;;;-2.60;62.60;;;;;;5005039;28;20029;-55
2022/12/06 05:10:33;;;;;;;12.52;7.90;;;-2.60;62.60;;;;;;5007966;28;20197;-51
2022/12/06 05:13:00;;;;;;;8.05;6.55;;;-2.60;62.60;;;;;;5016575;28;20034;-53
2022/12/06 05:15:28;;;;;;;10.18;7.38;;;-2.60;62.60;;;;;;5013676;28;20068;-52
2022/12/06 05:17:55;;;;;;;10.50;7.97;;;-2.70;62.60;;;;;;5015043;28;20144;-48
2022/12/06 05:20:20;;;;;;;11.20;7.40;;;-2.70;62.60;;;;;;5014260;28;20026;-53
2022/12/06 05:22:47;;;;;;;12.20;7.40;;;-2.70;62.50;;;;;;5022548;28;20048;-51
2022/12/06 05:25:24;;;;;;;9.95;7.45;;;-2.70;62.70;;;;;;5015534;28;20044;-53
2022/12/06 05:27:52;;;;;;;12.35;8.02;;;-2.70;62.70;;;;;;5004103;28;20042;-54
2022/12/06 05:30:18;;;;;;;12.30;7.93;;;-2.70;62.70;;;;;;5012416;28;20493;-58
2022/12/06 05:32:44;;;;;;;14.25;7.90;;;-2.70;62.60;;;;;;5019883;28;20140;-53
2022/12/06 05:35:10;;;;;;;13.15;7.68;;;-2.70;62.70;;;;;;5028497;28;20029;-54
2022/12/06 05:37:35;;;;;;;10.50;7.82;;;-2.80;62.70;;;;;;5024919;28;20037;-54
2022/12/06 05:40:09;;;;;;;10.35;6.88;;;-2.80;62.80;;;;;;5026849;28;20037;-54
2022/12/06 05:42:35;;;;;;;10.48;7.57;;;-2.80;62.80;;;;;;5010570;28;20037;-55
2022/12/06 05:45:04;;;;;;;13.13;8.43;;;-2.80;62.80;;;;;;5005976;28;20486;-53
2022/12/06 05:47:30;;;;;;;13.55;8.27;;;-2.80;63.60;;;;;;5018002;28;20029;-53
2022/12/06 05:49:56;;;;;;;12.63;8.32;;;-2.80;62.90;;;;;;5011760;28;20026;-54
2022/12/06 05:52:22;;;;;;;10.43;7.80;;;-2.80;63.00;;;;;;5014816;28;20084;-53
2022/12/06 05:54:47;;;;;;;9.73;7.60;;;-2.80;63.00;;;;;;5022182;28;20112;-55
2022/12/06 05:57:13;;;;;;;9.63;7.50;;;-2.80;63.10;;;;;;5010968;28;20080;-66
2022/12/06 05:59:39;;;;;;;12.65;8.50;;;-2.80;63.20;;;;;;5008374;28;20061;-65
2022/12/06 06:02:05;;;;;;;11.13;7.43;;;-2.80;63.20;;;;;;5013007;28;20037;-60
2022/12/06 06:04:34;;;;;;;10.27;7.18;;;-2.80;63.10;;;;;;5012746;28;20038;-60
2022/12/06 06:07:00;;;;;;;12.10;7.32;;;-2.80;63.00;;;;;;5022773;28;20036;-61
2022/12/06 06:09:26;;;;;;;12.15;7.57;;;-2.70;63.20;;;;;;5012599;28;20033;-66
2022/12/06 06:11:52;;;;;;;9.68;7.00;;;-2.60;63.00;;;;;;5014777;28;20361;-58
2022/12/06 06:14:19;;;;;;;12.85;8.15;;;-2.60;62.90;;;;;;5011621;28;20045;-58
2022/12/06 06:16:45;;;;;;;10.52;7.50;;;-2.60;62.90;;;;;;5007349;28;20084;-59
2022/12/06 06:19:10;;;;;;;10.57;7.55;;;-2.50;62.80;;;;;;5016891;28;20042;-60
2022/12/06 06:21:36;;;;;;;11.15;7.25;;;-2.50;62.80;;;;;;5009016;28;20080;-54
2022/12/06 06:24:02;;;;;;;8.57;6.65;;;-2.50;62.60;;;;;;5011643;28;20629;-54
2022/12/06 06:26:28;;;;;;;9.68;6.47;;;-2.40;62.70;;;;;;5008578;28;20054;-54
2022/12/06 06:28:54;;;;;;;8.85;6.40;;;-2.40;62.60;;;;;;5007792;28;20021;-54
2022/12/06 06:31:20;;;;;;;7.88;5.85;;;-2.40;62.60;;;;;;5004283;28;20052;-56
2022/12/06 06:33:45;;;;;;;7.57;6.30;;;-2.40;62.70;;;;;;5008664;28;20105;-54
2022/12/06 06:36:11;;;;;;;9.43;6.75;;;-2.30;62.70;;;;;;5003387;28;20113;-60
2022/12/06 06:38:37;;;;;;;8.38;5.97;;;-2.30;62.60;;;;;;5002474;28;20027;-60
2022/12/06 06:41:03;;;;;;;8.38;6.22;;;-2.30;62.40;;;;;;5001378;28;20587;-65
2022/12/06 06:43:29;;;;;;;8.93;5.93;;;-2.20;62.40;;;;;;5003175;28;20493;-68
2022/12/06 06:46:00;;;;;;;7.97;6.40;;;-2.20;62.10;;;;;;5002271;28;20112;-51
2022/12/06 06:48:27;;;;;;;7.83;5.53;;;-2.10;62.20;;;;;;5003315;28;20034;-55
2022/12/06 06:50:53;;;;;;;7.57;5.75;;;-2.10;62.10;;;;;;5003520;28;20283;-54
2022/12/06 06:53:19;;;;;;;9.65;6.18;;;-2.10;61.90;;;;;;5004495;28;20597;-57
2022/12/06 06:55:46;;;;;;;8.38;5.65;;;-2.10;61.70;;;;;;5003657;28;20026;-54
2022/12/06 06:58:15;;;;;;;9.20;6.03;;;-2.00;62.40;;;;;;5004821;28;20038;-54
2022/12/06 07:00:41;;;;;;;7.70;5.60;;;-2.00;61.60;;;;;;5001068;28;20049;-55
2022/12/06 07:03:14;;;;;;;8.30;5.85;;;-1.90;61.60;;;;;;5000743;28;20408;-53
2022/12/06 07:05:42;;;;;;;8.05;5.68;;;-1.90;61.50;;;;;;5005088;28;20026;-53
2022/12/06 07:08:08;;;;;;;8.65;5.47;;;-1.90;61.20;;;;;;4997284;28;20033;-55
2022/12/06 07:10:34;;;;;;;7.20;5.45;;;-1.90;61.30;;;;;;5003848;28;20037;-55
2022/12/06 07:12:59;;;;;;;7.45;5.55;;;-1.80;61.30;;;;;;4995459;28;20030;-55
2022/12/06 07:15:25;;;;;;;8.63;5.95;;;-1.80;61.00;;;;;;4997099;28;20033;-56
2022/12/06 07:17:52;;;;;;;7.47;5.78;;;-1.80;61.20;;;;;;4999805;28;20026;-55
2022/12/06 07:20:18;;;;;;;6.95;4.95;;;-1.80;61.20;;;;;;5000296;28;20624;-50
2022/12/06 07:22:44;;;;;;;8.57;5.55;;;-1.70;61.30;;;;;;4993385;28;20045;-53
2022/12/06 07:25:09;;;;;;;7.47;5.38;;;-1.70;61.30;;;;;;4995930;28;20056;-54
2022/12/06 07:27:35;;;;;;;6.72;5.32;;;-1.60;61.20;;;;;;4992860;28;20468;-55
2022/12/06 07:30:04;;;;;;;8.75;5.63;;;-1.50;61.00;;;;;;4968525;28;20091;-56
2022/12/06 07:32:35;;;;;;;8.68;6.38;;;-1.60;60.70;;;;;;4989751;28;20062;-55
2022/12/06 07:35:01;;;;;;;7.63;5.55;;;-1.60;60.50;;;;;;4992201;28;20129;-56
2022/12/06 07:37:27;;;;;;;9.23;5.53;;;-1.70;60.40;;;;;;4985427;28;20197;-54
2022/12/06 07:39:53;;;;;;;7.82;5.50;;;-1.70;60.60;;;;;;4991447;28;20033;-55
2022/12/06 07:45:06;;;;;;;7.85;5.57;;;-1.70;60.80;;;;;;4995894;28;20439;-57
2022/12/06 07:47:36;;;;;;;7.07;5.07;;;-1.70;60.70;;;;;;4992590;28;20099;-55
2022/12/06 07:50:04;;;;;;;6.88;5.40;;;-1.70;60.60;;;;;;4994072;28;20034;-55
2022/12/06 07:52:34;;;;;;;4.15;3.78;;;-1.70;60.70;;;;;;4990035;28;20125;-51
2022/12/06 07:55:00;;;;;;;6.18;4.43;;;-1.70;60.70;;;;;;4986843;28;20038;-56
2022/12/06 07:57:26;;;;;;;6.97;5.53;;;-1.70;61.00;;;;;;4990551;28;20567;-52
2022/12/06 07:59:52;;;;;;;5.97;4.53;;;-1.60;60.80;;;;;;4994417;28;20030;-53
2022/12/06 08:02:20;;;;;;;6.78;5.18;;;-1.50;61.00;;;;;;4987772;28;20053;-54
2022/12/06 08:04:46;;;;;;;7.68;5.55;;;-1.50;60.80;;;;;;4993402;28;20491;-53
2022/12/06 08:07:12;;;;;;;8.48;5.85;;;-1.40;60.60;;;;;;4991711;28;21068;-54
2022/12/06 08:09:37;;;;;;;8.85;5.80;;;-1.40;60.30;;;;;;4978798;28;20034;-55
2022/12/06 08:12:03;;;;;;;8.32;5.68;;;-1.40;60.40;;;;;;4976489;28;20835;-54
2022/12/06 08:14:29;;;;;;;8.60;4.90;;;-1.50;60.30;;;;;;4983552;28;20062;-55
2022/12/06 08:16:54;;;;;;;7.30;5.20;;;-1.50;60.30;;;;;;4971768;28;20034;-55
2022/12/06 08:19:20;;;;;;;8.52;4.80;;;-1.50;60.30;;;;;;4979197;28;20455;-56
2022/12/06 08:21:47;;;;;;;7.10;5.15;;;-1.50;60.40;;;;;;4984054;28;20038;-52
2022/12/06 08:24:13;;;;;;;7.93;5.95;;;-1.50;60.40;;;;;;4977717;28;20039;-56
2022/12/06 08:26:39;;;;;;;7.63;5.15;;;-1.50;60.40;;;;;;4984866;28;20040;-56
2022/12/06 08:29:04;;;;;;;6.90;5.05;;;-1.50;60.40;;;;;;4968436;28;20034;-61
2022/12/06 08:31:33;;;;;;;8.13;4.75;;;-1.50;60.50;;;;;;4955315;28;20041;-56
2022/12/06 08:34:00;;;;;;;7.55;4.88;;;-1.50;60.40;;;;;;4961092;28;20045;-55
2022/12/06 08:36:27;;;;;;;7.80;5.82;;;-1.50;60.40;;;;;;4970117;28;20058;-55
2022/12/06 08:38:53;;;;;;;6.05;4.93;;;-1.50;60.50;;;;;;4963605;28;20044;-55
2022/12/06 08:44:05;;;;;;;7.20;5.25;;;-1.50;60.80;;;;;;4981311;28;20049;-55
2022/12/06 08:46:32;;;;;;;8.25;5.18;;;-1.50;60.80;;;;;;4975390;28;20058;-57
2022/12/06 08:48:58;;;;;;;6.95;5.22;;;-1.40;60.80;;;;;;4995422;28;20435;-56
2022/12/06 08:51:24;;;;;;;6.57;5.22;;;-1.50;60.50;;;;;;4982484;28;20037;-58
2022/12/06 08:53:54;;;;;;;7.90;5.30;;;-1.50;60.90;;;;;;4980602;28;20056;-59
2022/12/06 08:56:21;;;;;;;7.85;5.45;;;-1.40;60.90;;;;;;4983977;28;20075;-52
2022/12/06 08:58:47;;;;;;;8.65;5.90;;;-1.40;61.10;;;;;;4976170;28;20050;-57
2022/12/06 09:01:21;;;;;;;7.93;5.25;;;-1.40;61.00;;;;;;4992516;28;20052;-56
2022/12/06 09:03:47;;;;;;;7.30;5.35;;;-1.40;61.00;;;;;;4982489;28;20169;-55
2022/12/06 09:06:13;;;;;;;6.05;5.13;;;-1.50;61.00;;;;;;4979738;28;20453;-55
2022/12/06 09:08:39;;;;;;;7.35;4.90;;;-1.50;61.20;;;;;;4984386;28;20030;-54
2022/12/06 09:11:06;;;;;;;7.40;4.82;;;-1.50;61.30;;;;;;4971727;28;20072;-56
2022/12/06 09:13:34;;;;;;;7.65;4.68;;;-1.50;61.30;;;;;;4974910;28;20065;-58
2022/12/06 09:16:00;;;;;;;6.88;5.45;;;-1.50;61.50;;;;;;4980894;28;20137;-55
2022/12/06 09:18:27;;;;;;;6.40;4.95;;;-1.50;61.70;;;;;;4969561;28;20065;-55
2022/12/06 09:20:53;;;;;;;6.00;4.90;;;-1.50;61.80;;;;;;4975019;28;20606;-58
2022/12/06 09:23:18;;;;;;;7.05;4.88;;;-1.50;62.00;;;;;;4974274;28;20042;-58
2022/12/06 09:25:44;;;;;;;7.35;5.45;;;-1.50;62.10;;;;;;4978207;28;20033;-57
2022/12/06 09:28:10;;;;;;;9.30;5.50;;;-1.50;62.10;;;;;;4978092;28;20488;-57
2022/12/06 09:30:36;;;;;;;6.22;4.40;;;-1.50;61.90;;;;;;4968334;28;20104;-57
2022/12/06 09:33:02;;;;;;;5.85;4.38;;;-1.50;62.10;;;;;;4967214;28;20145;-56
2022/12/06 09:35:28;;;;;;;6.22;4.22;;;-1.50;62.10;;;;;;4968709;28;20036;-57
2022/12/06 09:37:54;;;;;;;5.93;4.55;;;-1.60;62.10;;;;;;4973375;28;20038;-54
2022/12/06 09:40:31;;;;;;;7.85;4.78;;;-1.60;62.30;;;;;;4975378;28;20033;-57
2022/12/06 09:43:27;;;;;;;6.07;4.60;;;-1.60;62.40;;;;;;4974587;28;20734;-56
2022/12/06 09:46:12;;;;;;;7.88;5.15;;;-1.60;62.50;;;;;;4982717;28;20935;-56
2022/12/06 09:49:11;;;;;;;6.45;4.70;;;-1.60;62.80;;;;;;4978908;28;20038;-56
2022/12/06 09:52:18;;;;;;;6.30;5.35;;;-1.60;63.00;;;;;;4975363;28;20040;-57
2022/12/06 09:55:19;;;;;;;6.50;5.30;;;-1.70;63.20;;;;;;4968298;28;20043;-57
2022/12/06 09:57:49;;;;;;;7.20;5.37;;;-1.70;63.40;;;;;;4915793;28;20090;-56
2022/12/06 10:00:20;;;;;;;7.95;5.55;;;-1.70;63.70;;;;;;4970824;28;20286;-58
2022/12/06 10:02:58;;;;;;;8.30;5.47;;;-1.70;64.20;;;;;;4976816;28;20045;-56
2022/12/06 10:06:00;;;;;;;7.32;4.97;;;-1.80;64.30;;;;;;4986350;28;20045;-56
2022/12/06 10:08:56;;;;;;;7.00;4.82;;;-1.80;64.30;;;;;;4967023;28;20091;-55
2022/12/06 10:11:53;;;;;;;6.53;5.15;;;-1.80;64.60;;;;;;4976858;28;21558;-57
2022/12/06 10:14:38;;;;;;;8.05;4.82;;;-1.80;65.00;;;;;;4982070;28;20037;-54
2022/12/06 10:17:04;;;;;;;5.38;4.30;;;-1.80;65.20;;;;;;4987619;28;20044;-53
2022/12/06 10:19:54;;;;;;;9.50;5.65;;;-1.80;65.40;;;;;;4991739;28;20125;-55
2022/12/06 10:22:53;;;;;;;7.47;5.20;;;-1.80;65.50;;;;;;4988719;28;21310;-53
2022/12/06 10:25:55;;;;;;;7.72;5.45;;;-1.80;65.80;;;;;;4980186;28;20046;-53
2022/12/06 10:28:24;;;;;;;7.20;5.20;;;-1.80;65.70;;;;;;4947016;28;20057;-56
2022/12/06 10:30:54;;;;;;;5.80;4.70;;;-1.80;65.90;;;;;;4968590;28;20148;-58
2022/12/06 10:33:41;;;;;;;7.45;5.10;;;-1.80;66.10;;;;;;4962174;28;20045;-55
2022/12/06 10:36:15;;;;;;;6.53;5.32;;;-1.80;66.50;;;;;;4973949;28;20034;-56
2022/12/06 10:38:59;;;;;;;6.38;4.75;;;-1.70;66.60;;;;;;4964714;28;20030;-55
2022/12/06 10:41:33;;;;;;;5.78;4.75;;;-1.70;66.70;;;;;;4973570;28;20026;-53
2022/12/06 10:44:24;;;;;;;8.15;4.53;;;-1.70;66.80;;;;;;4969437;28;20049;-54
2022/12/06 10:51:08;;;;;;;6.78;4.25;;;-1.70;67.00;;;;;;5048947;27;20458;-53
2022/12/06 10:53:43;;;;;;;8.38;5.18;;;-1.60;66.70;;;;;;5057746;28;20040;-55
2022/12/06 10:56:23;;;;;;;8.10;4.85;;;-1.60;66.90;;;;;;5064182;28;20078;-50
2022/12/06 10:59:06;;;;;;;6.13;4.72;;;-1.60;67.10;;;;;;5062866;28;20097;-54
2022/12/06 11:01:40;;;;;;;6.82;4.90;;;-1.60;67.20;;;;;;5044855;28;20031;-54
2022/12/06 11:04:15;;;;;;;5.15;4.13;;;-1.60;67.30;;;;;;5068361;27;20068;-55
2022/12/06 11:07:20;;;;;;;6.90;5.05;;;-1.60;67.60;;;;;;5055912;28;20152;-51
2022/12/06 11:09:53;;;;;;;5.72;4.82;;;-1.60;67.70;;;;;;5049071;28;20059;-52
2022/12/06 11:12:30;;;;;;;6.57;4.75;;;-1.60;67.90;;;;;;5057850;28;20197;-57
2022/12/06 11:15:25;;;;;;;6.57;4.90;;;-1.50;68.10;;;;;;5054470;28;20031;-54
2022/12/06 11:17:57;;;;;;;7.07;4.78;;;-1.60;68.00;;;;;;5062641;28;20082;-55
2022/12/06 11:20:25;;;;;;;7.50;4.85;;;-1.50;68.10;;;;;;5068350;28;20046;-55
2022/12/06 11:23:13;;;;;;;6.43;4.82;;;-1.60;68.00;;;;;;5062448;28;20041;-55
2022/12/06 11:26:03;;;;;;;6.30;4.50;;;-1.50;68.00;;;;;;5046262;27;20050;-56
2022/12/06 11:28:42;;;;;;;5.63;4.22;;;-1.50;68.20;;;;;;5062035;28;20028;-53
2022/12/06 11:31:37;;;;;;;7.32;4.68;;;-1.50;68.20;;;;;;5050950;28;20059;-55
2022/12/06 11:34:08;;;;;;;5.75;4.70;;;-1.40;68.50;;;;;;5040869;28;20036;-55
2022/12/06 11:36:34;;;;;;;6.43;5.25;;;-1.40;68.90;;;;;;5066256;28;20036;-54
2022/12/06 11:39:00;;;;;;;5.82;4.60;;;-1.40;69.20;;;;;;5055759;28;20178;-53
2022/12/06 11:41:33;;;;;;;7.55;5.05;;;-1.30;69.50;;;;;;5063817;28;20036;-55
2022/12/06 11:43:59;;;;;;;9.10;5.63;;;-1.20;69.50;;;;;;5056269;28;20105;-54
2022/12/06 11:46:26;;;;;;;7.22;4.90;;;-1.20;69.40;;;;;;5060053;28;20170;-54
2022/12/06 11:48:53;;;;;;;9.25;5.72;;;-1.20;69.40;;;;;;5056129;28;21224;-54
2022/12/06 11:51:22;;;;;;;6.70;5.13;;;-1.20;69.40;;;;;;5057941;28;20036;-52
2022/12/06 11:54:05;;;;;;;7.75;5.25;;;-1.20;69.40;;;;;;5058077;28;20481;-53
2022/12/06 11:56:53;;;;;;;6.38;5.30;;;-1.20;69.50;;;;;;5062366;28;20154;-55
2022/12/06 11:59:32;;;;;;;7.30;5.10;;;-1.20;69.50;;;;;;5062406;28;20109;-55
2022/12/06 12:02:02;;;;;;;6.78;5.05;;;-1.20;69.60;;;;;;5055795;28;20473;-55
2022/12/06 12:04:42;;;;;;;6.72;5.10;;;-1.20;69.60;;;;;;5047030;28;20473;-52
2022/12/06 12:07:07;;;;;;;7.25;4.90;;;-1.20;69.60;;;;;;5048353;28;20070;-55
2022/12/06 12:09:45;;;;;;;6.90;4.85;;;-1.20;69.90;;;;;;5048481;28;20028;-56
2022/12/06 12:12:18;;;;;;;7.50;5.20;;;-1.20;70.00;;;;;;5041695;28;20032;-55
2022/12/06 12:14:53;;;;;;;6.03;5.05;;;-1.20;69.90;;;;;;5048964;28;20028;-56
2022/12/06 12:17:24;;;;;;;7.53;5.00;;;-1.20;69.90;;;;;;5054401;28;20078;-56
2022/12/06 12:19:57;;;;;;;6.93;5.15;;;-1.20;69.90;;;;;;5048900;28;21047;-57
2022/12/06 12:22:26;;;;;;;8.88;5.55;;;-1.20;69.70;;;;;;5050428;28;21386;-56
2022/12/06 12:24:57;;;;;;;6.35;5.13;;;-1.20;69.70;;;;;;5053737;28;20054;-56
2022/12/06 12:27:47;;;;;;;7.65;5.20;;;-1.20;69.60;;;;;;5051712;28;20531;-57
2022/12/06 12:30:36;;;;;;;7.43;5.00;;;-1.20;69.50;;;;;;5049388;28;20037;-54
2022/12/06 12:33:04;;;;;;;6.90;4.72;;;-1.20;69.50;;;;;;5052956;28;20315;-55
2022/12/06 12:35:32;;;;;;;8.75;5.07;;;-1.10;69.70;;;;;;5037089;28;20131;-54
2022/12/06 12:38:03;;;;;;;7.63;5.10;;;-1.20;69.50;;;;;;5051907;28;20059;-54
2022/12/06 12:40:37;;;;;;;7.85;5.28;;;-1.10;69.60;;;;;;5054148;28;20095;-55
2022/12/06 12:43:08;;;;;;;6.97;4.60;;;-1.10;69.50;;;;;;5045278;28;20680;-54
2022/12/06 12:45:35;;;;;;;6.10;4.50;;;-1.10;69.40;;;;;;5052995;28;20043;-55
2022/12/06 12:48:18;;;;;;;6.93;4.82;;;-1.00;69.40;;;;;;5048058;28;20117;-55
2022/12/06 12:50:58;;;;;;;7.47;4.80;;;-1.00;69.40;;;;;;5047545;28;22233;-56
2022/12/06 12:53:39;;;;;;;7.30;4.93;;;-1.00;69.50;;;;;;5051181;28;20083;-54
2022/12/06 12:56:13;;;;;;;7.95;4.53;;;-0.90;69.30;;;;;;5055853;28;20111;-56
2022/12/06 12:58:40;;;;;;;6.90;5.30;;;-0.90;69.30;;;;;;5048938;28;20059;-54
2022/12/06 13:01:54;;;;;;;5.95;4.60;;;-0.90;69.30;;;;;;5042771;28;20032;-53
2022/12/06 13:04:40;;;;;;;6.47;5.10;;;-0.80;69.40;;;;;;5050399;28;20043;-54
2022/12/06 13:07:09;;;;;;;5.10;4.28;;;-0.80;69.20;;;;;;5051435;28;20378;-57
2022/12/06 13:10:06;;;;;;;6.78;4.88;;;-0.80;69.20;;;;;;5041012;28;20036;-58
2022/12/06 13:12:42;;;;;;;6.50;4.90;;;-0.70;69.20;;;;;;5043908;28;20055;-55
2022/12/06 13:15:19;;;;;;;5.80;4.97;;;-0.70;69.30;;;;;;5046587;28;20113;-57
2022/12/06 13:17:51;;;;;;;7.38;5.07;;;-0.70;69.40;;;;;;5043421;28;20028;-54
2022/12/06 13:20:22;;;;;;;7.35;4.65;;;-0.70;69.30;;;;;;5049795;28;20068;-56
2022/12/06 13:22:52;;;;;;;6.05;4.63;;;-0.60;69.10;;;;;;5041446;28;21173;-56
2022/12/06 13:25:18;;;;;;;6.60;4.40;;;-0.60;69.40;;;;;;5048805;28;20259;-57
2022/12/06 13:27:47;;;;;;;6.70;4.68;;;-0.60;69.40;;;;;;5052236;28;20081;-56
2022/12/06 13:30:25;;;;;;;6.68;4.70;;;-0.50;69.40;;;;;;5050006;28;20117;-56
2022/12/06 13:33:01;;;;;;;7.68;4.50;;;-0.50;69.50;;;;;;5051782;28;20028;-51
2022/12/06 13:35:28;;;;;;;6.07;4.57;;;-0.50;69.60;;;;;;5043778;28;20032;-57
2022/12/06 13:37:59;;;;;;;6.00;4.50;;;-0.40;69.70;;;;;;5048846;28;20797;-55
2022/12/06 13:40:33;;;;;;;7.10;5.10;;;-0.40;69.70;;;;;;5044120;28;20049;-57
2022/12/06 13:43:02;;;;;;;5.97;4.82;;;-0.40;69.80;;;;;;5056854;28;20515;-55